sensor_id;sensor_type;location;lat;lon;timestamp;pressure;altitude;pressure_sealevel;temperature;humidity
49583;BME280;36329;48.816;44.624;2022-09-28T00:01:49;100399;;;16.4;83
49583;BME280;36329;48.816;44.624;2022-09-28T00:04:51;100398;;;16.3;82.6
49583;BME280;36329;48.816;44.624;2022-09-28T00:07:53;100384;;;16.3;82
49583;BME280;36329;48.816;44.624;2022-09-28T00:10:54;100386;;;16.4;82
49583;BME280;36329;48.816;44.624;2022-09-28T00:13:59;100397;;;16.3;82.2
49583;BME280;36329;48.816;44.624;2022-09-28T00:17:01;100385;;;16.3;82.2
49583;BME280;36329;48.816;44.624;2022-09-28T00:20:03;100365;;;16.3;82
49583;BME280;36329;48.816;44.624;2022-09-28T00:23:04;100382;;;16.3;80.6
49583;BME280;36329;48.816;44.624;2022-09-28T00:26:06;100388;;;16.3;79.1
49583;BME280;36329;48.816;44.624;2022-09-28T00:29:14;100387;;;16.3;79.6
49583;BME280;36329;48.816;44.624;2022-09-28T00:32:16;100390;;;16.3;79.9
49583;BME280;36329;48.816;44.624;2022-09-28T00:35:18;100401;;;16.3;78.7
49583;BME280;36329;48.816;44.624;2022-09-28T00:38:19;100397;;;16.2;78.5
49583;BME280;36329;48.816;44.624;2022-09-28T00:41:22;100398;;;16.4;78.1
49583;BME280;36329;48.816;44.624;2022-09-28T00:44:40;100400;;;16.3;77.8
49583;BME280;36329;48.816;44.624;2022-09-28T00:47:44;100398;;;16.3;77.7
49583;BME280;36329;48.816;44.624;2022-09-28T00:50:47;100405;;;16.3;76.7
49583;BME280;36329;48.816;44.624;2022-09-28T00:53:49;100400;;;16.3;76.5
49583;BME280;36329;48.816;44.624;2022-09-28T00:56:51;100408;;;16.3;76.4
49583;BME280;36329;48.816;44.624;2022-09-28T00:59:53;100432;;;16.3;75.8
49583;BME280;36329;48.816;44.624;2022-09-28T01:02:56;100441;;;16.3;75.9
49583;BME280;36329;48.816;44.624;2022-09-28T01:06:00;100448;;;16.2;75.1
49583;BME280;36329;48.816;44.624;2022-09-28T01:09:04;100454;;;16.2;75
49583;BME280;36329;48.816;44.624;2022-09-28T01:12:07;100440;;;16.2;74.7
49583;BME280;36329;48.816;44.624;2022-09-28T01:15:09;100455;;;16.2;75.2
49583;BME280;36329;48.816;44.624;2022-09-28T01:18:16;100422;;;16.2;74.9
49583;BME280;36329;48.816;44.624;2022-09-28T01:21:21;100421;;;16.2;75.2
49583;BME280;36329;48.816;44.624;2022-09-28T01:24:38;100417;;;16.1;76.2
49583;BME280;36329;48.816;44.624;2022-09-28T01:27:45;100427;;;16.2;76
49583;BME280;36329;48.816;44.624;2022-09-28T01:30:55;100411;;;16.1;76.1
49583;BME280;36329;48.816;44.624;2022-09-28T01:34:03;100402;;;16;77.2
49583;BME280;36329;48.816;44.624;2022-09-28T01:37:12;100417;;;16;77.3
49583;BME280;36329;48.816;44.624;2022-09-28T01:40:16;100413;;;16;78.2
49583;BME280;36329;48.816;44.624;2022-09-28T01:43:21;100425;;;16;79.2
49583;BME280;36329;48.816;44.624;2022-09-28T01:46:27;100428;;;16;78.6
49583;BME280;36329;48.816;44.624;2022-09-28T01:49:33;100405;;;15.9;80
49583;BME280;36329;48.816;44.624;2022-09-28T01:52:40;100409;;;15.9;80.3
49583;BME280;36329;48.816;44.624;2022-09-28T01:55:47;100402;;;15.9;79.4
49583;BME280;36329;48.816;44.624;2022-09-28T01:58:54;100365;;;15.9;80.1
49583;BME280;36329;48.816;44.624;2022-09-28T02:02:01;100364;;;15.8;80.4
49583;BME280;36329;48.816;44.624;2022-09-28T02:05:07;100346;;;15.8;80.5
49583;BME280;36329;48.816;44.624;2022-09-28T02:08:16;100353;;;15.7;80.4
49583;BME280;36329;48.816;44.624;2022-09-28T02:11:21;100334;;;15.6;80.9
49583;BME280;36329;48.816;44.624;2022-09-28T02:14:23;100342;;;15.6;81.1
49583;BME280;36329;48.816;44.624;2022-09-28T02:17:26;100340;;;15.6;81.9
49583;BME280;36329;48.816;44.624;2022-09-28T02:20:28;100330;;;15.6;82.4
49583;BME280;36329;48.816;44.624;2022-09-28T02:23:34;100317;;;15.7;82.2
49583;BME280;36329;48.816;44.624;2022-09-28T02:26:40;100301;;;15.6;82
49583;BME280;36329;48.816;44.624;2022-09-28T02:29:42;100299;;;15.5;82.8
49583;BME280;36329;48.816;44.624;2022-09-28T02:32:47;100312;;;15.5;82.2
49583;BME280;36329;48.816;44.624;2022-09-28T02:35:50;100318;;;15.6;82.4
49583;BME280;36329;48.816;44.624;2022-09-28T02:38:52;100313;;;15.7;82.1
49583;BME280;36329;48.816;44.624;2022-09-28T02:41:59;100313;;;15.7;82.5
49583;BME280;36329;48.816;44.624;2022-09-28T02:45:09;100297;;;15.6;83.4
49583;BME280;36329;48.816;44.624;2022-09-28T02:48:24;100298;;;15.5;83.6
49583;BME280;36329;48.816;44.624;2022-09-28T02:51:33;100307;;;15.5;84
49583;BME280;36329;48.816;44.624;2022-09-28T02:54:52;100306;;;15.4;85.1
49583;BME280;36329;48.816;44.624;2022-09-28T02:58:12;100309;;;15.4;85.4
49583;BME280;36329;48.816;44.624;2022-09-28T03:01:23;100288;;;15.4;85.3
49583;BME280;36329;48.816;44.624;2022-09-28T03:04:32;100298;;;15.4;84.7
49583;BME280;36329;48.816;44.624;2022-09-28T03:07:39;100304;;;15.4;86.1
49583;BME280;36329;48.816;44.624;2022-09-28T03:10:48;100294;;;15.5;85.3
49583;BME280;36329;48.816;44.624;2022-09-28T03:13:52;100278;;;15.4;86.1
49583;BME280;36329;48.816;44.624;2022-09-28T03:16:54;100273;;;15.4;86.4
49583;BME280;36329;48.816;44.624;2022-09-28T03:19:56;100278;;;15.3;87.2
49583;BME280;36329;48.816;44.624;2022-09-28T03:22:57;100277;;;15.3;87.8
49583;BME280;36329;48.816;44.624;2022-09-28T03:25:59;100272;;;15.3;88.7
49583;BME280;36329;48.816;44.624;2022-09-28T03:29:01;100269;;;15.3;88.7
49583;BME280;36329;48.816;44.624;2022-09-28T03:32:02;100255;;;15.3;89.4
49583;BME280;36329;48.816;44.624;2022-09-28T03:35:05;100258;;;15.2;89.6
49583;BME280;36329;48.816;44.624;2022-09-28T03:38:07;100243;;;15.2;90.1
49583;BME280;36329;48.816;44.624;2022-09-28T03:41:09;100240;;;15.2;90.4
49583;BME280;36329;48.816;44.624;2022-09-28T03:44:11;100248;;;15.2;90.4
49583;BME280;36329;48.816;44.624;2022-09-28T03:47:12;100265;;;15.2;91.4
49583;BME280;36329;48.816;44.624;2022-09-28T03:50:14;100288;;;15.2;90.9
49583;BME280;36329;48.816;44.624;2022-09-28T03:53:16;100295;;;15.1;91.9
49583;BME280;36329;48.816;44.624;2022-09-28T03:56:17;100300;;;15.1;92.4
49583;BME280;36329;48.816;44.624;2022-09-28T03:59:19;100297;;;15.2;92.2
49583;BME280;36329;48.816;44.624;2022-09-28T04:02:21;100298;;;15.2;92.8
49583;BME280;36329;48.816;44.624;2022-09-28T04:05:22;100283;;;15.2;92.7
49583;BME280;36329;48.816;44.624;2022-09-28T04:08:24;100281;;;15.3;92.4
49583;BME280;36329;48.816;44.624;2022-09-28T04:11:26;100280;;;15.3;93.4
49583;BME280;36329;48.816;44.624;2022-09-28T04:14:28;100280;;;15.3;94
49583;BME280;36329;48.816;44.624;2022-09-28T04:17:30;100280;;;15.2;94.9
49583;BME280;36329;48.816;44.624;2022-09-28T04:20:31;100276;;;15.3;95
49583;BME280;36329;48.816;44.624;2022-09-28T04:23:34;100272;;;15.3;95.5
49583;BME280;36329;48.816;44.624;2022-09-28T04:26:36;100250;;;15.4;95.9
49583;BME280;36329;48.816;44.624;2022-09-28T04:29:38;100254;;;15.3;96.9
49583;BME280;36329;48.816;44.624;2022-09-28T04:32:40;100232;;;15.4;97.2
49583;BME280;36329;48.816;44.624;2022-09-28T04:35:41;100221;;;15.4;98.1
49583;BME280;36329;48.816;44.624;2022-09-28T04:38:43;100212;;;15.5;98
49583;BME280;36329;48.816;44.624;2022-09-28T04:41:46;100198;;;15.5;98.1
49583;BME280;36329;48.816;44.624;2022-09-28T04:44:48;100192;;;15.5;98.8
49583;BME280;36329;48.816;44.624;2022-09-28T04:47:49;100184;;;15.5;99.4
49583;BME280;36329;48.816;44.624;2022-09-28T04:50:52;100179;;;15.5;100
49583;BME280;36329;48.816;44.624;2022-09-28T04:53:54;100182;;;15.6;100
49583;BME280;36329;48.816;44.624;2022-09-28T04:56:56;100203;;;15.6;100
49583;BME280;36329;48.816;44.624;2022-09-28T04:59:58;100200;;;15.6;100
49583;BME280;36329;48.816;44.624;2022-09-28T05:02:59;100205;;;15.6;100
49583;BME280;36329;48.816;44.624;2022-09-28T05:06:01;100238;;;15.7;100
49583;BME280;36329;48.816;44.624;2022-09-28T05:09:03;100249;;;15.6;100
49583;BME280;36329;48.816;44.624;2022-09-28T05:12:04;100245;;;15.5;100
49583;BME280;36329;48.816;44.624;2022-09-28T05:15:07;100268;;;15.6;100
49583;BME280;36329;48.816;44.624;2022-09-28T05:18:09;100282;;;15.6;100
49583;BME280;36329;48.816;44.624;2022-09-28T05:21:12;100253;;;15.5;100
49583;BME280;36329;48.816;44.624;2022-09-28T05:24:14;100243;;;15.5;100
49583;BME280;36329;48.816;44.624;2022-09-28T05:27:15;100247;;;15.6;100
49583;BME280;36329;48.816;44.624;2022-09-28T05:30:17;100241;;;15.5;100
49583;BME280;36329;48.816;44.624;2022-09-28T05:33:18;100248;;;15.6;100
49583;BME280;36329;48.816;44.624;2022-09-28T05:36:20;100222;;;15.5;100
49583;BME280;36329;48.816;44.624;2022-09-28T05:39:22;100243;;;15.6;100
49583;BME280;36329;48.816;44.624;2022-09-28T05:42:23;100231;;;15.6;100
49583;BME280;36329;48.816;44.624;2022-09-28T05:45:25;100227;;;15.6;100
49583;BME280;36329;48.816;44.624;2022-09-28T05:48:26;100222;;;15.6;100
49583;BME280;36329;48.816;44.624;2022-09-28T05:51:28;100226;;;15.6;100
49583;BME280;36329;48.816;44.624;2022-09-28T05:54:29;100240;;;15.6;100
49583;BME280;36329;48.816;44.624;2022-09-28T05:57:31;100234;;;15.6;100
49583;BME280;36329;48.816;44.624;2022-09-28T06:00:34;100228;;;15.7;100
49583;BME280;36329;48.816;44.624;2022-09-28T06:03:36;100212;;;15.7;100
49583;BME280;36329;48.816;44.624;2022-09-28T06:06:37;100205;;;15.7;100
49583;BME280;36329;48.816;44.624;2022-09-28T06:09:39;100179;;;15.7;100
49583;BME280;36329;48.816;44.624;2022-09-28T06:12:40;100173;;;15.7;100
49583;BME280;36329;48.816;44.624;2022-09-28T06:15:44;100171;;;15.7;100
49583;BME280;36329;48.816;44.624;2022-09-28T06:18:46;100176;;;15.7;100
49583;BME280;36329;48.816;44.624;2022-09-28T06:21:48;100161;;;15.9;100
49583;BME280;36329;48.816;44.624;2022-09-28T06:24:50;100152;;;15.9;100
49583;BME280;36329;48.816;44.624;2022-09-28T06:27:53;100145;;;15.9;100
49583;BME280;36329;48.816;44.624;2022-09-28T06:30:54;100123;;;16.1;100
49583;BME280;36329;48.816;44.624;2022-09-28T06:33:56;100127;;;16;100
49583;BME280;36329;48.816;44.624;2022-09-28T06:36:58;100117;;;16.1;100
49583;BME280;36329;48.816;44.624;2022-09-28T06:40:00;100134;;;15.9;100
49583;BME280;36329;48.816;44.624;2022-09-28T06:43:03;100139;;;15.9;100
49583;BME280;36329;48.816;44.624;2022-09-28T06:46:06;100156;;;16;100
49583;BME280;36329;48.816;44.624;2022-09-28T06:49:08;100148;;;16;100
49583;BME280;36329;48.816;44.624;2022-09-28T06:52:10;100148;;;16;100
49583;BME280;36329;48.816;44.624;2022-09-28T06:55:12;100174;;;16.1;100
49583;BME280;36329;48.816;44.624;2022-09-28T06:58:15;100182;;;16;100
49583;BME280;36329;48.816;44.624;2022-09-28T07:01:17;100186;;;15.9;100
49583;BME280;36329;48.816;44.624;2022-09-28T07:04:19;100175;;;15.9;100
49583;BME280;36329;48.816;44.624;2022-09-28T07:07:21;100158;;;16;100
49583;BME280;36329;48.816;44.624;2022-09-28T07:10:24;100175;;;16;100
49583;BME280;36329;48.816;44.624;2022-09-28T07:13:27;100175;;;16;100
49583;BME280;36329;48.816;44.624;2022-09-28T07:16:28;100187;;;16.1;100
49583;BME280;36329;48.816;44.624;2022-09-28T07:19:30;100194;;;16.1;100
49583;BME280;36329;48.816;44.624;2022-09-28T07:22:32;100178;;;16.1;100
49583;BME280;36329;48.816;44.624;2022-09-28T07:25:33;100187;;;16.2;100
49583;BME280;36329;48.816;44.624;2022-09-28T07:28:35;100179;;;16.2;100
49583;BME280;36329;48.816;44.624;2022-09-28T07:31:37;100170;;;16.4;100
49583;BME280;36329;48.816;44.624;2022-09-28T07:34:39;100174;;;16.3;100
49583;BME280;36329;48.816;44.624;2022-09-28T07:37:40;100179;;;16.4;100
49583;BME280;36329;48.816;44.624;2022-09-28T07:40:42;100176;;;16.5;100
49583;BME280;36329;48.816;44.624;2022-09-28T07:43:43;100187;;;16.4;100
49583;BME280;36329;48.816;44.624;2022-09-28T07:46:45;100194;;;16.5;100
49583;BME280;36329;48.816;44.624;2022-09-28T07:49:46;100204;;;16.5;100
49583;BME280;36329;48.816;44.624;2022-09-28T07:52:48;100196;;;16.6;100
49583;BME280;36329;48.816;44.624;2022-09-28T07:55:50;100195;;;16.7;100
49583;BME280;36329;48.816;44.624;2022-09-28T07:58:52;100186;;;16.7;100
49583;BME280;36329;48.816;44.624;2022-09-28T08:01:54;100203;;;16.8;100
49583;BME280;36329;48.816;44.624;2022-09-28T08:04:56;100189;;;16.7;100
49583;BME280;36329;48.816;44.624;2022-09-28T08:07:57;100193;;;16.6;100
49583;BME280;36329;48.816;44.624;2022-09-28T08:10:59;100182;;;16.7;100
49583;BME280;36329;48.816;44.624;2022-09-28T08:14:01;100186;;;16.6;100
49583;BME280;36329;48.816;44.624;2022-09-28T08:17:03;100193;;;16.5;100
49583;BME280;36329;48.816;44.624;2022-09-28T08:20:06;100197;;;16.6;100
49583;BME280;36329;48.816;44.624;2022-09-28T08:23:08;100190;;;16.4;100
49583;BME280;36329;48.816;44.624;2022-09-28T08:26:10;100197;;;16.4;100
49583;BME280;36329;48.816;44.624;2022-09-28T08:29:12;100197;;;16.6;100
49583;BME280;36329;48.816;44.624;2022-09-28T08:32:13;100207;;;16.6;100
49583;BME280;36329;48.816;44.624;2022-09-28T08:35:15;100204;;;16.6;100
49583;BME280;36329;48.816;44.624;2022-09-28T08:38:17;100197;;;16.7;100
49583;BME280;36329;48.816;44.624;2022-09-28T08:41:26;100190;;;16.7;100
49583;BME280;36329;48.816;44.624;2022-09-28T08:44:40;100189;;;16.5;100
49583;BME280;36329;48.816;44.624;2022-09-28T08:47:49;100176;;;16.6;100
49583;BME280;36329;48.816;44.624;2022-09-28T08:50:55;100166;;;16.6;100
49583;BME280;36329;48.816;44.624;2022-09-28T08:54:03;100159;;;16.6;100
49583;BME280;36329;48.816;44.624;2022-09-28T08:57:10;100168;;;16.6;100
49583;BME280;36329;48.816;44.624;2022-09-28T09:00:18;100173;;;16.8;100
49583;BME280;36329;48.816;44.624;2022-09-28T09:03:22;100186;;;16.9;100
49583;BME280;36329;48.816;44.624;2022-09-28T09:06:33;100192;;;17;100
49583;BME280;36329;48.816;44.624;2022-09-28T09:09:45;100197;;;17.1;100
49583;BME280;36329;48.816;44.624;2022-09-28T09:12:57;100186;;;17.3;100
49583;BME280;36329;48.816;44.624;2022-09-28T09:16:10;100184;;;17.2;100
49583;BME280;36329;48.816;44.624;2022-09-28T09:19:27;100181;;;17.2;100
49583;BME280;36329;48.816;44.624;2022-09-28T09:22:38;100166;;;17.1;100
49583;BME280;36329;48.816;44.624;2022-09-28T09:25:43;100172;;;17.2;100
49583;BME280;36329;48.816;44.624;2022-09-28T09:29:03;100175;;;17.2;100
49583;BME280;36329;48.816;44.624;2022-09-28T09:32:25;100173;;;17.3;100
49583;BME280;36329;48.816;44.624;2022-09-28T09:35:44;100164;;;17.4;100
49583;BME280;36329;48.816;44.624;2022-09-28T09:38:56;100171;;;17.5;100
49583;BME280;36329;48.816;44.624;2022-09-28T09:42:11;100178;;;17.5;100
49583;BME280;36329;48.816;44.624;2022-09-28T09:45:26;100171;;;17.5;100
49583;BME280;36329;48.816;44.624;2022-09-28T09:48:36;100172;;;17.6;100
49583;BME280;36329;48.816;44.624;2022-09-28T09:51:43;100164;;;17.6;100
49583;BME280;36329;48.816;44.624;2022-09-28T09:54:48;100162;;;17.6;100
49583;BME280;36329;48.816;44.624;2022-09-28T09:57:54;100158;;;17.5;100
49583;BME280;36329;48.816;44.624;2022-09-28T10:01:04;100166;;;17.6;100
49583;BME280;36329;48.816;44.624;2022-09-28T10:04:14;100170;;;17.6;100
49583;BME280;36329;48.816;44.624;2022-09-28T10:07:22;100171;;;17.7;100
49583;BME280;36329;48.816;44.624;2022-09-28T10:10:28;100168;;;17.7;100
49583;BME280;36329;48.816;44.624;2022-09-28T10:13:30;100169;;;17.7;100
49583;BME280;36329;48.816;44.624;2022-09-28T10:16:32;100146;;;17.7;100
49583;BME280;36329;48.816;44.624;2022-09-28T10:19:35;100143;;;17.7;100
49583;BME280;36329;48.816;44.624;2022-09-28T10:22:38;100142;;;17.5;100
49583;BME280;36329;48.816;44.624;2022-09-28T10:25:42;100149;;;17.5;100
49583;BME280;36329;48.816;44.624;2022-09-28T10:28:48;100153;;;17.6;100
49583;BME280;36329;48.816;44.624;2022-09-28T10:31:53;100153;;;17.7;100
49583;BME280;36329;48.816;44.624;2022-09-28T10:35:11;100144;;;17.8;100
49583;BME280;36329;48.816;44.624;2022-09-28T10:38:16;100140;;;17.8;100
49583;BME280;36329;48.816;44.624;2022-09-28T10:41:18;100144;;;18;100
49583;BME280;36329;48.816;44.624;2022-09-28T10:44:20;100151;;;18.1;100
49583;BME280;36329;48.816;44.624;2022-09-28T10:47:24;100142;;;18.2;100
49583;BME280;36329;48.816;44.624;2022-09-28T10:50:27;100126;;;18.2;100
49583;BME280;36329;48.816;44.624;2022-09-28T10:53:28;100119;;;18.2;100
49583;BME280;36329;48.816;44.624;2022-09-28T10:56:35;100132;;;18.3;100
49583;BME280;36329;48.816;44.624;2022-09-28T10:59:39;100128;;;18.4;100
49583;BME280;36329;48.816;44.624;2022-09-28T11:02:41;100127;;;18.5;100
49583;BME280;36329;48.816;44.624;2022-09-28T11:05:51;100123;;;18.7;100
49583;BME280;36329;48.816;44.624;2022-09-28T11:08:56;100123;;;18.8;100
49583;BME280;36329;48.816;44.624;2022-09-28T11:11:59;100126;;;18.8;100
49583;BME280;36329;48.816;44.624;2022-09-28T11:15:05;100113;;;18.9;100
49583;BME280;36329;48.816;44.624;2022-09-28T11:18:18;100114;;;18.9;100
49583;BME280;36329;48.816;44.624;2022-09-28T11:21:23;100105;;;19;100
49583;BME280;36329;48.816;44.624;2022-09-28T11:24:26;100117;;;19;100
49583;BME280;36329;48.816;44.624;2022-09-28T11:27:28;100109;;;18.9;100
49583;BME280;36329;48.816;44.624;2022-09-28T11:30:32;100116;;;18.8;100
49583;BME280;36329;48.816;44.624;2022-09-28T11:33:36;100117;;;18.7;100
49583;BME280;36329;48.816;44.624;2022-09-28T11:36:47;100120;;;18.6;100
49583;BME280;36329;48.816;44.624;2022-09-28T11:40:03;100115;;;18.6;100
49583;BME280;36329;48.816;44.624;2022-09-28T11:43:16;100117;;;18.7;100
49583;BME280;36329;48.816;44.624;2022-09-28T11:46:31;100113;;;18.7;100
49583;BME280;36329;48.816;44.624;2022-09-28T11:49:39;100117;;;18.7;100
49583;BME280;36329;48.816;44.624;2022-09-28T11:52:47;100117;;;18.8;100
49583;BME280;36329;48.816;44.624;2022-09-28T11:55:57;100110;;;18.8;100
49583;BME280;36329;48.816;44.624;2022-09-28T11:59:04;100110;;;18.9;100
49583;BME280;36329;48.816;44.624;2022-09-28T12:02:15;100108;;;18.9;100
49583;BME280;36329;48.816;44.624;2022-09-28T12:05:22;100108;;;18.9;100
49583;BME280;36329;48.816;44.624;2022-09-28T12:08:28;100114;;;18.9;100
49583;BME280;36329;48.816;44.624;2022-09-28T12:11:34;100114;;;19;100
49583;BME280;36329;48.816;44.624;2022-09-28T12:14:38;100113;;;18.9;100
49583;BME280;36329;48.816;44.624;2022-09-28T12:17:44;100110;;;18.9;100
49583;BME280;36329;48.816;44.624;2022-09-28T12:20:51;100119;;;18.9;100
49583;BME280;36329;48.816;44.624;2022-09-28T12:23:59;100112;;;18.8;100
49583;BME280;36329;48.816;44.624;2022-09-28T12:27:10;100109;;;18.7;100
49583;BME280;36329;48.816;44.624;2022-09-28T12:30:17;100097;;;18.8;100
49583;BME280;36329;48.816;44.624;2022-09-28T12:33:19;100097;;;18.6;100
49583;BME280;36329;48.816;44.624;2022-09-28T12:36:29;100097;;;18.5;100
49583;BME280;36329;48.816;44.624;2022-09-28T12:39:42;100101;;;18.5;100
49583;BME280;36329;48.816;44.624;2022-09-28T12:42:59;100107;;;18.4;100
49583;BME280;36329;48.816;44.624;2022-09-28T12:46:17;100115;;;18.5;100
49583;BME280;36329;48.816;44.624;2022-09-28T12:49:29;100125;;;18.6;100
49583;BME280;36329;48.816;44.624;2022-09-28T12:52:40;100132;;;18.6;100
49583;BME280;36329;48.816;44.624;2022-09-28T12:55:51;100131;;;18.4;100
49583;BME280;36329;48.816;44.624;2022-09-28T12:59:00;100131;;;18.3;100
49583;BME280;36329;48.816;44.624;2022-09-28T13:02:28;100134;;;18.3;100
49583;BME280;36329;48.816;44.624;2022-09-28T13:05:44;100125;;;18.3;100
49583;BME280;36329;48.816;44.624;2022-09-28T13:09:07;100130;;;18.3;100
49583;BME280;36329;48.816;44.624;2022-09-28T13:12:18;100121;;;18.3;100
49583;BME280;36329;48.816;44.624;2022-09-28T13:15:31;100113;;;18.3;100
49583;BME280;36329;48.816;44.624;2022-09-28T13:18:44;100107;;;18.3;100
49583;BME280;36329;48.816;44.624;2022-09-28T13:21:54;100113;;;18.3;100
49583;BME280;36329;48.816;44.624;2022-09-28T13:25:04;100114;;;18.3;100
49583;BME280;36329;48.816;44.624;2022-09-28T13:28:14;100115;;;18.2;100
49583;BME280;36329;48.816;44.624;2022-09-28T13:31:23;100117;;;18.3;100
49583;BME280;36329;48.816;44.624;2022-09-28T13:34:27;100114;;;18.2;100
49583;BME280;36329;48.816;44.624;2022-09-28T13:37:30;100104;;;18.1;100
49583;BME280;36329;48.816;44.624;2022-09-28T13:44:17;100107;;;18.1;100
49583;BME280;36329;48.816;44.624;2022-09-28T13:47:32;100100;;;18;100
49583;BME280;36329;48.816;44.624;2022-09-28T13:50:52;100101;;;18;100
49583;BME280;36329;48.816;44.624;2022-09-28T13:54:06;100097;;;18;100
49583;BME280;36329;48.816;44.624;2022-09-28T13:57:16;100101;;;18;100
49583;BME280;36329;48.816;44.624;2022-09-28T14:00:27;100124;;;18;100
49583;BME280;36329;48.816;44.624;2022-09-28T14:03:42;100116;;;18;100
49583;BME280;36329;48.816;44.624;2022-09-28T14:06:52;100108;;;17.9;100
49583;BME280;36329;48.816;44.624;2022-09-28T14:10:16;100105;;;17.9;100
49583;BME280;36329;48.816;44.624;2022-09-28T14:16:57;100102;;;17.9;100
49583;BME280;36329;48.816;44.624;2022-09-28T14:20:03;100115;;;17.9;100
49583;BME280;36329;48.816;44.624;2022-09-28T14:23:20;100123;;;17.7;100
49583;BME280;36329;48.816;44.624;2022-09-28T14:26:37;100116;;;17.7;100
49583;BME280;36329;48.816;44.624;2022-09-28T14:29:43;100132;;;17.7;100
49583;BME280;36329;48.816;44.624;2022-09-28T14:32:49;100125;;;17.7;100
49583;BME280;36329;48.816;44.624;2022-09-28T14:35:55;100123;;;17.6;100
49583;BME280;36329;48.816;44.624;2022-09-28T14:38:57;100122;;;17.7;100
49583;BME280;36329;48.816;44.624;2022-09-28T14:42:06;100123;;;17.7;100
49583;BME280;36329;48.816;44.624;2022-09-28T14:45:32;100132;;;17.7;100
49583;BME280;36329;48.816;44.624;2022-09-28T14:48:45;100131;;;17.8;100
49583;BME280;36329;48.816;44.624;2022-09-28T14:52:00;100129;;;17.8;100
49583;BME280;36329;48.816;44.624;2022-09-28T14:55:02;100130;;;17.8;100
49583;BME280;36329;48.816;44.624;2022-09-28T14:58:05;100128;;;17.8;100
49583;BME280;36329;48.816;44.624;2022-09-28T15:01:15;100133;;;17.9;100
49583;BME280;36329;48.816;44.624;2022-09-28T15:04:22;100131;;;17.9;100
49583;BME280;36329;48.816;44.624;2022-09-28T15:07:27;100140;;;18;100
49583;BME280;36329;48.816;44.624;2022-09-28T15:10:31;100133;;;18;100
49583;BME280;36329;48.816;44.624;2022-09-28T15:13:38;100135;;;18;100
49583;BME280;36329;48.816;44.624;2022-09-28T15:16:47;100144;;;18;100
49583;BME280;36329;48.816;44.624;2022-09-28T15:20:17;100155;;;18;100
49583;BME280;36329;48.816;44.624;2022-09-28T15:23:24;100170;;;18;100
49583;BME280;36329;48.816;44.624;2022-09-28T15:26:29;100179;;;17.9;100
49583;BME280;36329;48.816;44.624;2022-09-28T15:29:31;100195;;;17.8;100
49583;BME280;36329;48.816;44.624;2022-09-28T15:32:38;100199;;;17.8;100
49583;BME280;36329;48.816;44.624;2022-09-28T15:35:46;100193;;;17.7;100
49583;BME280;36329;48.816;44.624;2022-09-28T15:38:58;100182;;;17.7;100
49583;BME280;36329;48.816;44.624;2022-09-28T15:42:01;100174;;;17.8;100
49583;BME280;36329;48.816;44.624;2022-09-28T15:45:25;100177;;;17.8;100
49583;BME280;36329;48.816;44.624;2022-09-28T15:48:30;100180;;;17.9;100
49583;BME280;36329;48.816;44.624;2022-09-28T15:51:46;100190;;;17.8;100
49583;BME280;36329;48.816;44.624;2022-09-28T15:54:50;100194;;;17.9;100
49583;BME280;36329;48.816;44.624;2022-09-28T15:58:06;100186;;;17.9;100
49583;BME280;36329;48.816;44.624;2022-09-28T16:01:26;100193;;;17.9;100
49583;BME280;36329;48.816;44.624;2022-09-28T16:04:46;100198;;;18;95.3
49583;BME280;36329;48.816;44.624;2022-09-28T16:08:04;100190;;;18;95
49583;BME280;36329;48.816;44.624;2022-09-28T16:11:14;100198;;;18.1;90
49583;BME280;36329;48.816;44.624;2022-09-28T16:14:19;100196;;;18.1;89
49583;BME280;36329;48.816;44.624;2022-09-28T16:17:28;100191;;;18.1;87.3
49583;BME280;36329;48.816;44.624;2022-09-28T16:20:32;100188;;;18.2;85.2
49583;BME280;36329;48.816;44.624;2022-09-28T16:23:35;100206;;;18.2;81.5
49583;BME280;36329;48.816;44.624;2022-09-28T16:26:37;100170;;;18.1;83.6
49583;BME280;36329;48.816;44.624;2022-09-28T16:29:40;100169;;;18.2;83
49583;BME280;36329;48.816;44.624;2022-09-28T16:32:53;100163;;;18.1;83.2
49583;BME280;36329;48.816;44.624;2022-09-28T16:36:01;100167;;;18.1;83.7
49583;BME280;36329;48.816;44.624;2022-09-28T16:39:08;100160;;;18;83.3
49583;BME280;36329;48.816;44.624;2022-09-28T16:42:11;100147;;;18.2;86
49583;BME280;36329;48.816;44.624;2022-09-28T16:45:17;100145;;;18;89.3
49583;BME280;36329;48.816;44.624;2022-09-28T16:48:20;100162;;;17.6;100
49583;BME280;36329;48.816;44.624;2022-09-28T16:51:22;100169;;;17.5;100
49583;BME280;36329;48.816;44.624;2022-09-28T16:54:29;100184;;;17.6;100
49583;BME280;36329;48.816;44.624;2022-09-28T16:57:30;100177;;;17.5;100
49583;BME280;36329;48.816;44.624;2022-09-28T17:00:32;100184;;;17.6;100
49583;BME280;36329;48.816;44.624;2022-09-28T17:03:39;100186;;;17.7;100
49583;BME280;36329;48.816;44.624;2022-09-28T17:06:41;100197;;;17.8;100
49583;BME280;36329;48.816;44.624;2022-09-28T17:09:43;100198;;;17.9;99.8
49583;BME280;36329;48.816;44.624;2022-09-28T17:12:50;100197;;;17.7;100
49583;BME280;36329;48.816;44.624;2022-09-28T17:15:51;100194;;;17.7;100
49583;BME280;36329;48.816;44.624;2022-09-28T17:18:53;100200;;;17.7;100
49583;BME280;36329;48.816;44.624;2022-09-28T17:22:05;100196;;;17.7;100
49583;BME280;36329;48.816;44.624;2022-09-28T17:25:08;100198;;;17.6;100
49583;BME280;36329;48.816;44.624;2022-09-28T17:28:17;100202;;;17.6;100